createdAt,value
2022-09-20T00:04:47.635Z,14.30
2022-09-20T00:15:07.367Z,14.90
2022-09-20T00:25:13.834Z,13.40
2022-09-20T00:36:18.640Z,11.90
2022-09-20T00:46:43.950Z,11.20
2022-09-20T00:57:36.430Z,10.80
2022-09-20T01:08:50.605Z,11.70
2022-09-20T01:20:08.943Z,10.60
2022-09-20T01:30:49.594Z,10.80
2022-09-20T01:41:39.058Z,10.00
2022-09-20T01:53:10.202Z,9.80
2022-09-20T02:04:08.191Z,9.50
2022-09-20T02:14:51.878Z,9.70
2022-09-20T02:25:54.467Z,10.70
2022-09-20T02:36:26.344Z,12.30
2022-09-20T02:47:37.188Z,11.90
2022-09-20T02:58:29.610Z,10.90
2022-09-20T03:09:11.168Z,9.70
2022-09-20T03:19:45.713Z,9.70
2022-09-20T03:30:41.645Z,10.30
2022-09-20T03:41:49.995Z,10.50
2022-09-20T03:52:59.058Z,10.10
2022-09-20T04:03:46.806Z,11.20
2022-09-20T04:14:19.441Z,11.30
2022-09-20T04:25:11.078Z,11.10
2022-09-20T04:36:30.384Z,11.80
2022-09-20T04:47:48.973Z,12.10
2022-09-20T04:58:38.816Z,12.40
2022-09-20T05:09:44.752Z,12.00
2022-09-20T05:20:53.909Z,12.30
2022-09-20T05:32:11.784Z,12.00
2022-09-20T05:43:03.973Z,13.40
2022-09-20T05:54:22.329Z,15.60
2022-09-20T06:05:02.530Z,16.80
2022-09-20T06:15:39.913Z,16.10
2022-09-20T06:25:57.761Z,18.30
2022-09-20T06:36:28.480Z,17.40
2022-09-20T06:46:48.370Z,19.00
2022-09-20T06:57:06.056Z,18.90
2022-09-20T07:07:21.219Z,19.80
2022-09-20T07:17:38.643Z,19.20
2022-09-20T07:27:48.204Z,20.60
2022-09-20T07:38:31.181Z,17.00
2022-09-20T07:48:46.633Z,17.80
2022-09-20T07:58:53.078Z,15.80
2022-09-20T08:09:36.250Z,15.30
2022-09-20T08:19:59.144Z,20.00
2022-09-20T08:30:10.910Z,20.80
2022-09-20T08:40:30.297Z,22.60
2022-09-20T08:51:33.655Z,22.70
2022-09-20T09:02:36.431Z,22.50
2022-09-20T09:13:36.411Z,18.40
2022-09-20T09:24:16.095Z,17.80
2022-09-20T09:34:49.711Z,16.00
2022-09-20T09:45:30.686Z,14.80
2022-09-20T09:55:57.955Z,14.40
2022-09-20T10:07:05.740Z,12.30
2022-09-20T10:17:43.810Z,13.10
2022-09-20T10:28:29.106Z,11.70
2022-09-20T10:39:12.926Z,10.00
2022-09-20T10:49:50.749Z,9.80
2022-09-20T11:00:44.963Z,8.10
2022-09-20T11:11:00.625Z,6.70
2022-09-20T11:21:24.167Z,5.80
2022-09-20T11:31:34.046Z,5.00
2022-09-20T11:41:41.567Z,4.70
2022-09-20T11:52:46.160Z,4.40
2022-09-20T12:02:55.060Z,4.50
2022-09-20T12:13:25.988Z,4.80
2022-09-20T12:23:45.298Z,3.80
2022-09-20T12:34:29.232Z,3.20
2022-09-20T12:44:41.299Z,3.10
2022-09-20T12:55:11.177Z,2.80
2022-09-20T13:05:40.724Z,2.80
2022-09-20T13:16:05.809Z,2.80
2022-09-20T13:26:18.926Z,3.30
2022-09-20T13:36:37.715Z,2.90
2022-09-20T13:46:54.400Z,2.50
2022-09-20T13:57:22.798Z,2.80
2022-09-20T14:07:47.559Z,2.80
2022-09-20T14:17:59.349Z,3.20
2022-09-20T14:28:26.801Z,2.80
2022-09-20T14:38:34.419Z,2.90
2022-09-20T14:48:43.135Z,3.50
2022-09-20T14:59:47.181Z,3.20
2022-09-20T15:09:56.674Z,2.90
2022-09-20T15:20:06.069Z,2.50
2022-09-20T15:30:11.567Z,3.00
2022-09-20T15:40:20.817Z,2.60
2022-09-20T15:50:27.707Z,2.90
2022-09-20T16:00:46.009Z,2.80
2022-09-20T16:10:59.409Z,3.40
2022-09-20T16:21:28.966Z,3.00
2022-09-20T16:31:50.642Z,2.20
2022-09-20T16:42:20.874Z,2.10
2022-09-20T16:52:29.538Z,2.10
2022-09-20T17:02:36.356Z,2.70
2022-09-20T17:12:46.486Z,2.60
2022-09-20T17:23:29.011Z,3.80
2022-09-20T17:33:49.053Z,5.70
2022-09-20T17:43:59.957Z,6.30
2022-09-20T17:54:14.134Z,6.70
2022-09-20T18:04:25.328Z,7.80
2022-09-20T18:14:41.570Z,9.70
2022-09-20T18:24:50.363Z,11.40
2022-09-20T18:35:06.812Z,10.70
2022-09-20T18:45:10.507Z,10.30
2022-09-20T18:55:17.340Z,10.60
2022-09-20T19:05:44.949Z,10.50
2022-09-20T19:16:18.985Z,10.40
2022-09-20T19:26:28.214Z,10.70
2022-09-20T19:37:00.535Z,10.10
2022-09-20T19:48:04.264Z,10.70
2022-09-20T19:58:14.909Z,11.00
2022-09-20T20:08:33.276Z,9.50
2022-09-20T20:19:32.639Z,8.80
2022-09-20T20:29:46.334Z,8.40
2022-09-20T20:40:09.592Z,7.80
2022-09-20T20:50:24.717Z,7.60
2022-09-20T21:01:16.479Z,7.50
2022-09-20T21:12:30.567Z,7.50
2022-09-20T21:23:38.056Z,6.80
2022-09-20T21:34:00.609Z,6.30
2022-09-20T21:44:37.479Z,5.60
2022-09-20T21:55:55.171Z,6.10
2022-09-20T22:06:46.680Z,5.10
2022-09-20T22:16:54.793Z,5.10
2022-09-20T22:27:26.740Z,4.50
2022-09-20T22:37:42.248Z,4.60
2022-09-20T22:48:04.795Z,4.60
2022-09-20T22:58:13.674Z,5.00
2022-09-20T23:08:34.649Z,4.90
2022-09-20T23:18:50.979Z,5.10
2022-09-20T23:29:36.628Z,5.40
2022-09-20T23:39:53.073Z,5.80
2022-09-20T23:50:53.056Z,5.80
